createdAt,value
2017-06-24T04:00:42.272Z,392
2017-06-24T04:01:07.751Z,400
2017-06-24T04:01:33.232Z,408
2017-06-24T04:01:58.717Z,412
2017-06-24T04:02:24.208Z,424
2017-06-24T04:02:49.688Z,424
2017-06-24T04:03:15.170Z,416
2017-06-24T04:03:40.626Z,408
2017-06-24T04:04:06.092Z,408
2017-06-24T04:04:31.590Z,416
2017-06-24T04:04:57.045Z,420
2017-06-24T04:05:22.523Z,428
2017-06-24T04:05:48.017Z,436
2017-06-24T04:06:13.507Z,444
2017-06-24T04:06:38.986Z,444
2017-06-24T04:07:04.488Z,444
2017-06-24T04:07:29.962Z,448
2017-06-24T04:07:55.420Z,444
2017-06-24T04:08:20.902Z,448
2017-06-24T04:08:46.369Z,460
2017-06-24T04:09:11.846Z,464
2017-06-24T04:09:37.331Z,472
2017-06-24T04:10:02.799Z,480
2017-06-24T04:10:28.291Z,488
2017-06-24T04:10:53.773Z,500
2017-06-24T04:11:19.251Z,516
2017-06-24T04:11:44.723Z,528
2017-06-24T04:12:10.186Z,540
2017-06-24T04:12:35.638Z,552
2017-06-24T04:13:01.112Z,568
2017-06-24T04:13:26.605Z,580
2017-06-24T04:13:52.067Z,592
2017-06-24T04:14:17.528Z,604
2017-06-24T04:14:42.983Z,604
2017-06-24T04:15:08.461Z,604
2017-06-24T04:15:33.958Z,600
2017-06-24T04:15:59.403Z,600
2017-06-24T04:16:24.858Z,600
2017-06-24T04:16:50.311Z,604
2017-06-24T04:17:15.790Z,608
2017-06-24T04:17:41.264Z,612
2017-06-24T04:18:06.735Z,620
2017-06-24T04:18:32.215Z,628
2017-06-24T04:18:57.689Z,652
2017-06-24T04:19:23.195Z,692
2017-06-24T04:19:48.664Z,752
2017-06-24T04:20:14.130Z,788
2017-06-24T04:20:39.630Z,820
2017-06-24T04:21:05.114Z,844
2017-06-24T04:21:30.581Z,860
2017-06-24T04:21:56.096Z,872
2017-06-24T04:22:21.575Z,868
2017-06-24T04:22:47.036Z,872
2017-06-24T04:23:12.472Z,916
2017-06-24T04:23:37.952Z,888
2017-06-24T04:24:03.436Z,880
2017-06-24T04:24:28.923Z,924
2017-06-24T04:24:54.434Z,984
2017-06-24T04:25:19.931Z,1060
2017-06-24T04:25:45.414Z,1116
2017-06-24T04:26:10.905Z,1132
2017-06-24T04:26:36.383Z,1124
2017-06-24T04:27:01.847Z,1116
2017-06-24T04:27:27.327Z,1140
2017-06-24T04:27:52.801Z,1132
2017-06-24T04:28:18.281Z,1092
2017-06-24T04:28:43.757Z,1044
2017-06-24T04:29:09.234Z,1016
2017-06-24T04:29:34.747Z,1032
2017-06-24T04:30:00.230Z,1104
2017-06-24T04:30:25.741Z,1128
2017-06-24T04:30:51.207Z,1080
2017-06-24T04:31:16.721Z,1008
2017-06-24T04:31:42.194Z,936
2017-06-24T04:32:07.651Z,960
2017-06-24T04:32:33.118Z,1044
2017-06-24T04:32:58.610Z,1080
2017-06-24T04:33:24.113Z,1080
2017-06-24T04:33:49.579Z,1136
2017-06-24T04:34:15.081Z,1252
2017-06-24T04:34:40.578Z,1280
2017-06-24T04:35:06.052Z,1268
2017-06-24T04:35:31.520Z,1268
2017-06-24T04:35:56.993Z,1228
2017-06-24T04:36:22.472Z,1244
2017-06-24T04:36:47.972Z,1228
2017-06-24T04:37:13.436Z,1180
2017-06-24T04:37:38.925Z,1120
2017-06-24T04:38:04.392Z,1080
2017-06-24T04:38:29.880Z,1080
2017-06-24T04:38:55.359Z,1028
2017-06-24T04:39:20.847Z,996
2017-06-24T04:39:46.346Z,1084
2017-06-24T04:40:11.860Z,1080
2017-06-24T04:40:37.382Z,1032
2017-06-24T04:41:02.870Z,1084
2017-06-24T04:41:28.358Z,1044
2017-06-24T04:41:53.820Z,992
2017-06-24T04:42:19.295Z,1016
2017-06-24T04:42:44.789Z,1024
2017-06-24T04:43:10.268Z,1028
2017-06-24T04:43:35.752Z,1016
2017-06-24T04:44:01.255Z,960
2017-06-24T04:44:26.725Z,920
2017-06-24T04:44:52.209Z,920
2017-06-24T04:45:17.750Z,964
2017-06-24T04:45:43.237Z,1012
2017-06-24T04:46:08.749Z,1056
2017-06-24T04:46:34.217Z,1120
2017-06-24T04:46:59.672Z,1220
2017-06-24T04:47:25.135Z,1236
2017-06-24T04:47:50.616Z,1292
2017-06-24T04:48:16.094Z,1284
2017-06-24T04:48:41.596Z,1264
2017-06-24T04:49:07.056Z,1336
2017-06-24T04:49:32.519Z,1364
2017-06-24T04:49:57.992Z,1420
2017-06-24T04:50:23.484Z,1536
2017-06-24T04:50:48.963Z,1556
2017-06-24T04:51:14.417Z,1840
2017-06-24T04:51:39.911Z,2004
2017-06-24T04:52:05.378Z,1972
2017-06-24T04:52:30.847Z,1948
2017-06-24T04:52:56.356Z,1896
2017-06-24T04:53:21.852Z,1864
2017-06-24T04:53:47.339Z,1848
2017-06-24T04:54:12.845Z,2156
2017-06-24T04:54:38.338Z,2708
2017-06-24T04:55:03.811Z,2696
2017-06-24T04:55:29.295Z,2680
2017-06-24T04:55:54.779Z,2828
2017-06-24T04:56:20.224Z,2576
2017-06-24T04:56:45.693Z,2440
2017-06-24T04:57:11.169Z,2888
2017-06-24T04:57:36.656Z,3080
2017-06-24T04:59:00.144Z,2072
2017-06-24T04:59:25.626Z,2016
2017-06-24T04:59:51.101Z,1912
2017-06-24T05:00:16.589Z,1788
2017-06-24T05:00:42.070Z,1776
2017-06-24T05:01:07.546Z,1780
2017-06-24T05:01:33.035Z,1876
2017-06-24T05:01:58.495Z,2252
2017-06-24T05:02:23.957Z,2224
2017-06-24T05:02:49.427Z,1804
2017-06-24T05:03:14.935Z,1572
2017-06-24T05:03:40.405Z,1452
2017-06-24T05:04:05.865Z,1408
2017-06-24T05:04:31.310Z,1448
2017-06-24T05:04:56.795Z,1512
2017-06-24T05:05:22.280Z,1596
2017-06-24T05:05:47.759Z,1576
2017-06-24T05:06:13.197Z,1584
2017-06-24T05:06:38.683Z,1548
2017-06-24T05:07:04.149Z,1508
2017-06-24T05:07:29.622Z,1556
2017-06-24T05:07:55.114Z,1648
2017-06-24T05:08:20.609Z,1692
2017-06-24T05:08:46.084Z,1712
2017-06-24T05:09:11.555Z,1588
2017-06-24T05:09:37.060Z,1436
2017-06-24T05:10:02.535Z,1388
2017-06-24T05:10:27.999Z,1336
2017-06-24T05:10:53.482Z,1296
2017-06-24T05:11:18.956Z,1248
2017-06-24T05:11:44.431Z,1264
2017-06-24T05:12:09.905Z,1276
2017-06-24T05:12:35.387Z,1172
2017-06-24T05:13:00.858Z,1116
2017-06-24T05:13:26.334Z,1128
2017-06-24T05:13:51.820Z,1132
2017-06-24T05:14:17.285Z,1088
2017-06-24T05:14:42.773Z,1060
2017-06-24T05:15:08.268Z,1040
2017-06-24T05:15:33.728Z,1028
2017-06-24T05:15:59.215Z,1040
2017-06-24T05:16:24.692Z,1076
2017-06-24T05:16:50.147Z,1128
2017-06-24T05:17:15.627Z,1188
2017-06-24T05:17:41.098Z,1204
2017-06-24T05:18:06.571Z,1204
2017-06-24T05:18:32.030Z,1248
2017-06-24T05:18:57.493Z,1288
2017-06-24T05:19:22.963Z,1308
2017-06-24T05:19:48.461Z,1256
2017-06-24T05:20:13.926Z,1220
2017-06-24T05:20:39.407Z,1284
2017-06-24T05:21:04.889Z,1376
2017-06-24T05:21:30.389Z,1488
2017-06-24T05:21:55.853Z,1548
2017-06-24T05:22:21.320Z,1608
2017-06-24T05:22:46.793Z,1652
2017-06-24T05:23:12.281Z,1616
2017-06-24T05:23:37.736Z,1564
2017-06-24T05:24:03.212Z,1464
2017-06-24T05:24:28.660Z,1408
2017-06-24T05:24:54.108Z,1432
2017-06-24T05:25:19.610Z,1572
2017-06-24T05:25:45.083Z,1740
2017-06-24T05:26:10.562Z,1776
2017-06-24T05:26:36.041Z,1692
2017-06-24T05:27:01.524Z,1648
2017-06-24T05:27:27.024Z,1652
2017-06-24T05:27:52.494Z,1704
2017-06-24T05:28:17.962Z,1732
2017-06-24T05:28:43.420Z,1772
2017-06-24T05:29:08.922Z,1884
2017-06-24T05:29:34.394Z,2044
2017-06-24T05:29:59.879Z,2248
2017-06-24T05:30:25.384Z,2524
2017-06-24T05:30:50.841Z,2540
2017-06-24T05:31:16.309Z,2396
2017-06-24T05:31:41.795Z,2352
2017-06-24T05:32:07.258Z,2416
2017-06-24T05:32:32.713Z,2652
2017-06-24T05:32:58.206Z,2844
2017-06-24T05:33:23.662Z,2780
2017-06-24T05:33:49.156Z,2612
2017-06-24T05:34:14.625Z,2672
2017-06-24T05:34:40.121Z,2992
2017-06-24T05:35:05.602Z,3240
2017-06-24T05:35:31.080Z,3028
2017-06-24T05:35:56.556Z,2716
2017-06-24T05:36:22.060Z,2624
2017-06-24T05:36:47.515Z,2716
2017-06-24T05:37:12.983Z,2868
2017-06-24T05:37:38.485Z,3196
2017-06-24T05:38:03.947Z,3284
2017-06-24T05:38:29.444Z,3088
2017-06-24T05:38:54.888Z,2976
2017-06-24T05:39:20.361Z,3072
2017-06-24T05:39:45.842Z,2948
2017-06-24T05:40:11.319Z,2932
2017-06-24T05:40:36.785Z,3040
2017-06-24T05:41:03.068Z,2960
2017-06-24T05:41:28.538Z,2820
2017-06-24T05:41:54.019Z,2528
2017-06-24T05:42:19.461Z,2400
2017-06-24T05:42:44.921Z,2312
2017-06-24T05:43:10.380Z,2368
2017-06-24T05:43:35.878Z,2492
2017-06-24T05:44:01.342Z,2536
2017-06-24T05:44:26.825Z,2620
2017-06-24T05:44:52.305Z,2568
2017-06-24T05:45:17.802Z,2576
2017-06-24T05:45:43.297Z,2488
2017-06-24T05:46:08.768Z,2260
2017-06-24T05:46:34.251Z,2176
2017-06-24T05:46:59.735Z,2140
2017-06-24T05:47:25.228Z,1896
2017-06-24T05:47:50.692Z,1724
2017-06-24T05:48:16.153Z,1692
2017-06-24T05:48:41.619Z,1848
2017-06-24T05:49:07.126Z,2072
2017-06-24T05:49:32.589Z,2324
2017-06-24T05:49:58.061Z,2480
2017-06-24T05:50:23.537Z,2636
2017-06-24T05:50:49.012Z,2472
2017-06-24T05:51:14.525Z,2292
2017-06-24T05:51:40.025Z,2192
2017-06-24T05:52:05.530Z,2024
2017-06-24T05:52:30.975Z,1880
2017-06-24T05:52:56.446Z,1688
2017-06-24T05:53:21.924Z,1628
2017-06-24T05:53:47.397Z,1588
2017-06-24T05:54:12.867Z,1680
2017-06-24T05:54:38.340Z,1936
2017-06-24T05:55:03.874Z,2136
2017-06-24T05:55:29.343Z,2168
2017-06-24T05:55:54.827Z,2316
2017-06-24T05:56:20.299Z,2460
2017-06-24T05:56:45.767Z,2456
2017-06-24T05:57:11.233Z,2488
2017-06-24T05:57:36.684Z,2592
2017-06-24T05:58:02.186Z,2916
2017-06-24T05:58:27.678Z,3224
2017-06-24T05:58:53.154Z,3136
2017-06-24T05:59:18.629Z,2752
2017-06-24T05:59:44.111Z,2340
2017-06-24T06:00:09.575Z,2308
2017-06-24T06:00:35.034Z,2372
2017-06-24T06:01:00.539Z,2552
2017-06-24T06:01:25.999Z,2628
2017-06-24T06:01:51.495Z,2504
2017-06-24T06:02:16.961Z,2324
2017-06-24T06:02:42.446Z,2696
2017-06-24T06:03:07.930Z,2812
2017-06-24T06:03:33.415Z,2640
2017-06-24T06:03:58.899Z,2624
2017-06-24T06:04:24.365Z,2536
2017-06-24T06:04:49.889Z,2596
2017-06-24T06:05:15.380Z,2848
2017-06-24T06:05:40.867Z,2844
2017-06-24T06:06:06.375Z,2744
2017-06-24T06:06:31.884Z,2652
2017-06-24T06:06:57.338Z,2428
2017-06-24T06:07:22.824Z,2448
2017-06-24T06:07:48.335Z,2612
2017-06-24T06:08:13.808Z,2632
2017-06-24T06:08:39.266Z,2520
2017-06-24T06:09:04.727Z,2172
2017-06-24T06:09:30.221Z,2020
2017-06-24T06:09:55.723Z,2204
2017-06-24T06:10:21.206Z,2148
2017-06-24T06:10:46.700Z,1928
2017-06-24T06:11:12.193Z,1904
2017-06-24T06:11:37.659Z,1900
2017-06-24T06:12:03.136Z,1732
2017-06-24T06:12:28.600Z,1640
2017-06-24T06:12:54.061Z,1740
2017-06-24T06:13:19.545Z,1808
2017-06-24T06:13:45.029Z,1932
2017-06-24T06:14:10.512Z,2004
2017-06-24T06:14:35.971Z,2020
2017-06-24T06:15:01.437Z,2044
2017-06-24T06:15:26.922Z,2252
2017-06-24T06:15:52.389Z,2528
2017-06-24T06:16:17.858Z,2664
2017-06-24T06:16:43.351Z,2740
2017-06-24T06:17:08.829Z,2792
2017-06-24T06:17:34.316Z,2880
2017-06-24T06:17:59.810Z,2908
2017-06-24T06:18:25.327Z,2764
2017-06-24T06:18:50.803Z,2744
2017-06-24T06:19:16.282Z,2844
2017-06-24T06:19:41.780Z,2672
2017-06-24T06:20:07.236Z,2440
2017-06-24T06:20:32.708Z,2504
2017-06-24T06:20:58.206Z,2500
2017-06-24T06:21:23.713Z,2536
2017-06-24T06:21:49.224Z,2420
2017-06-24T06:22:14.708Z,2328
2017-06-24T06:22:40.188Z,2260
2017-06-24T06:23:05.678Z,2412
2017-06-24T06:23:31.155Z,2600
2017-06-24T06:23:56.628Z,2668
2017-06-24T06:24:22.097Z,2716
2017-06-24T06:24:47.597Z,2908
2017-06-24T06:25:13.082Z,2652
2017-06-24T06:25:38.563Z,2508
2017-06-24T06:26:04.071Z,2824
2017-06-24T06:26:29.514Z,3184
2017-06-24T06:26:55.029Z,3152
2017-06-24T06:27:20.521Z,3316
2017-06-24T06:27:45.980Z,3560
2017-06-24T06:28:11.491Z,3376
2017-06-24T06:28:36.957Z,3348
2017-06-24T06:29:02.476Z,3464
2017-06-24T06:29:27.949Z,3248
2017-06-24T06:29:53.439Z,3108
2017-06-24T06:30:18.920Z,3272
2017-06-24T06:30:44.398Z,3580
2017-06-24T06:31:09.890Z,3524
2017-06-24T06:31:35.358Z,3268
2017-06-24T06:32:00.858Z,3252
2017-06-24T06:32:26.336Z,3176
2017-06-24T06:32:51.830Z,3108
2017-06-24T06:33:17.289Z,2800
2017-06-24T06:33:42.748Z,2680
2017-06-24T06:34:08.215Z,3148
2017-06-24T06:34:33.676Z,3600
2017-06-24T06:34:59.183Z,3572
2017-06-24T06:35:24.639Z,3744
2017-06-24T06:35:50.122Z,4108
2017-06-24T06:36:15.610Z,4292
2017-06-24T06:36:41.083Z,4512
2017-06-24T06:37:06.559Z,4656
2017-06-24T06:37:32.061Z,4712
2017-06-24T06:37:57.541Z,4864
2017-06-24T06:38:23.026Z,5048
2017-06-24T06:38:48.492Z,4716
2017-06-24T06:39:14.016Z,4364
2017-06-24T06:39:39.446Z,4432
2017-06-24T06:40:04.930Z,4588
2017-06-24T06:40:30.404Z,4776
2017-06-24T06:40:55.887Z,4848
2017-06-24T06:41:21.372Z,4716
2017-06-24T06:41:46.869Z,4684
2017-06-24T06:42:12.356Z,5036
2017-06-24T06:42:37.831Z,5264
2017-06-24T06:43:03.310Z,4760
2017-06-24T06:43:28.759Z,4336
2017-06-24T06:43:54.243Z,4688
2017-06-24T06:44:19.749Z,4624
2017-06-24T06:44:45.221Z,4444
2017-06-24T06:45:10.732Z,4400
2017-06-24T06:45:36.213Z,3824
2017-06-24T06:46:01.709Z,3880
2017-06-24T06:46:27.184Z,4212
2017-06-24T06:46:52.642Z,4024
2017-06-24T06:47:18.121Z,4312
2017-06-24T06:47:43.600Z,4732
2017-06-24T06:48:09.104Z,4824
2017-06-24T06:48:34.561Z,4992
2017-06-24T06:49:00.041Z,5012
2017-06-24T06:49:25.546Z,5160
2017-06-24T06:49:51.020Z,5208
2017-06-24T06:50:16.491Z,5288
2017-06-24T06:50:42.002Z,5712
2017-06-24T06:51:07.449Z,5668
2017-06-24T06:51:32.920Z,4932
2017-06-24T06:51:58.386Z,5380
2017-06-24T06:52:23.856Z,6432
2017-06-24T06:52:49.311Z,7120
2017-06-24T06:53:14.784Z,7548
2017-06-24T06:53:40.281Z,7328
2017-06-24T06:54:05.764Z,7784
2017-06-24T06:54:31.247Z,7940
2017-06-24T06:54:56.719Z,7844
2017-06-24T06:55:22.200Z,8020
2017-06-24T06:55:47.673Z,7704
2017-06-24T06:56:13.147Z,7600
2017-06-24T06:56:38.619Z,7660
2017-06-24T06:57:04.088Z,9824
2017-06-24T06:57:29.592Z,11644
2017-06-24T06:57:55.052Z,11196
2017-06-24T06:58:20.531Z,10104
2017-06-24T06:58:46.202Z,8744
2017-06-24T06:59:11.680Z,8204
2017-06-24T06:59:37.161Z,7876
2017-06-24T07:00:02.630Z,7756
2017-06-24T07:00:28.090Z,7676
2017-06-24T07:00:53.557Z,8080
2017-06-24T07:01:19.029Z,8516
2017-06-24T07:01:44.496Z,8604
2017-06-24T07:02:09.972Z,8544
2017-06-24T07:02:35.400Z,7936
2017-06-24T07:03:00.879Z,6904
2017-06-24T07:03:26.328Z,6924
2017-06-24T07:03:51.784Z,7336
2017-06-24T07:04:17.304Z,7232
2017-06-24T07:04:42.830Z,6932
2017-06-24T07:05:08.322Z,6944
2017-06-24T07:05:33.788Z,6632
2017-06-24T07:05:59.248Z,6576
2017-06-24T07:06:24.700Z,6640
2017-06-24T07:06:50.190Z,6456
2017-06-24T07:07:15.640Z,6304
2017-06-24T07:07:41.114Z,5820
2017-06-24T07:08:06.587Z,5600
2017-06-24T07:08:32.049Z,5788
2017-06-24T07:08:57.545Z,6196
2017-06-24T07:09:23.037Z,7128
2017-06-24T07:09:48.512Z,7492
2017-06-24T07:10:13.992Z,7184
2017-06-24T07:10:39.443Z,6660
2017-06-24T07:11:04.945Z,6456
2017-06-24T07:11:30.404Z,6044
2017-06-24T07:11:55.890Z,5864
2017-06-24T07:12:21.361Z,5640
2017-06-24T07:12:46.853Z,5612
2017-06-24T07:13:12.336Z,5636
2017-06-24T07:13:37.826Z,5636
2017-06-24T07:14:03.327Z,5744
2017-06-24T07:14:28.803Z,5696
2017-06-24T07:14:54.302Z,5792
2017-06-24T07:15:19.777Z,5868
2017-06-24T07:15:45.254Z,6340
2017-06-24T07:16:10.716Z,6816
2017-06-24T07:16:36.196Z,7392
2017-06-24T07:17:01.655Z,7596
2017-06-24T07:17:27.157Z,7548
2017-06-24T07:17:52.633Z,7368
2017-06-24T07:18:18.102Z,7092
2017-06-24T07:18:43.555Z,6472
2017-06-24T07:19:09.001Z,6348
2017-06-24T07:19:34.521Z,5968
2017-06-24T07:20:00.007Z,5624
2017-06-24T07:20:25.482Z,5372
2017-06-24T07:20:50.945Z,5772
2017-06-24T07:21:16.430Z,6544
2017-06-24T07:21:41.882Z,6572
2017-06-24T07:22:07.393Z,6480
2017-06-24T07:22:32.870Z,6024
2017-06-24T07:22:58.353Z,5912
2017-06-24T07:23:23.831Z,6600
2017-06-24T07:23:49.315Z,6244
2017-06-24T07:24:14.780Z,5828
2017-06-24T07:24:40.293Z,5688
2017-06-24T07:25:05.767Z,6068
2017-06-24T07:25:31.226Z,6720
2017-06-24T07:25:56.678Z,8832
2017-06-24T07:26:22.142Z,8656
2017-06-24T07:26:47.640Z,8144
2017-06-24T07:27:13.111Z,8492
2017-06-24T07:27:38.691Z,8612
2017-06-24T07:28:04.084Z,7348
2017-06-24T07:28:29.560Z,7172
2017-06-24T07:28:55.031Z,9160
2017-06-24T07:29:20.500Z,9136
2017-06-24T07:29:45.966Z,8356
2017-06-24T07:30:11.436Z,8532
2017-06-24T07:30:36.880Z,7928
2017-06-24T07:31:02.382Z,9104
2017-06-24T07:31:27.856Z,7468
2017-06-24T07:31:53.326Z,6040
2017-06-24T07:32:18.806Z,6344
2017-06-24T07:32:44.298Z,6344
2017-06-24T07:33:09.800Z,6508
2017-06-24T07:33:35.237Z,8956
2017-06-24T07:34:00.737Z,9300
2017-06-24T07:34:26.404Z,9232
2017-06-24T07:34:51.806Z,8896
2017-06-24T07:35:17.329Z,8184
2017-06-24T07:35:42.695Z,6932
2017-06-24T07:36:08.154Z,6088
2017-06-24T07:36:33.619Z,5456
2017-06-24T07:36:59.109Z,4840
2017-06-24T07:37:24.581Z,5400
2017-06-24T07:37:50.173Z,6004
2017-06-24T07:38:15.538Z,6032
2017-06-24T07:38:41.037Z,6568
2017-06-24T07:39:06.759Z,6880
2017-06-24T07:39:32.344Z,7380
2017-06-24T07:39:57.853Z,8032
2017-06-24T07:40:23.264Z,7964
2017-06-24T07:40:48.743Z,8292
2017-06-24T07:41:14.279Z,8496
2017-06-24T07:41:39.751Z,8736
2017-06-24T07:42:05.255Z,8820
2017-06-24T07:42:30.759Z,8980
2017-06-24T07:42:56.256Z,9036
2017-06-24T07:43:21.752Z,9116
2017-06-24T07:43:47.237Z,9716
2017-06-24T07:44:12.730Z,9788
2017-06-24T07:44:38.207Z,9912
2017-06-24T07:45:03.711Z,9836
2017-06-24T07:45:29.317Z,9540
2017-06-24T07:45:54.769Z,9268
2017-06-24T07:46:20.284Z,9072
2017-06-24T07:46:45.738Z,8972
2017-06-24T07:47:11.254Z,9212
2017-06-24T07:47:36.697Z,9256
2017-06-24T07:48:02.161Z,9296
2017-06-24T07:48:27.654Z,9256
2017-06-24T07:48:53.186Z,9256
2017-06-24T07:49:18.889Z,9432
2017-06-24T07:49:44.384Z,9764
2017-06-24T07:50:09.866Z,10028
2017-06-24T07:50:35.376Z,10072
2017-06-24T07:51:01.011Z,9572
2017-06-24T07:51:26.408Z,9260
2017-06-24T07:51:52.052Z,8908
2017-06-24T07:52:17.654Z,8412
2017-06-24T07:52:43.136Z,8156
2017-06-24T07:53:08.853Z,8244
2017-06-24T07:53:34.476Z,8152
2017-06-24T07:54:00.022Z,8256
2017-06-24T07:54:25.668Z,8368
2017-06-24T07:54:51.176Z,8740
2017-06-24T07:55:16.668Z,9120
2017-06-24T07:55:42.156Z,8876
2017-06-24T07:56:07.710Z,8804
2017-06-24T07:56:33.187Z,9056
2017-06-24T07:56:58.655Z,9492
2017-06-24T07:57:24.138Z,9788
2017-06-24T07:57:49.612Z,10232
2017-06-24T07:58:15.137Z,10340
2017-06-24T07:58:40.598Z,9876
2017-06-24T07:59:06.124Z,9116
2017-06-24T07:59:31.652Z,8580
2017-06-24T07:59:57.225Z,8460
2017-06-24T08:00:22.616Z,8424
2017-06-24T08:00:48.106Z,8528
2017-06-24T08:01:13.576Z,8584
2017-06-24T08:01:39.075Z,8564
2017-06-24T08:02:04.554Z,8536
2017-06-24T08:02:30.037Z,8676
2017-06-24T08:02:55.669Z,9092
2017-06-24T08:03:21.170Z,9468
2017-06-24T08:03:46.794Z,9608
2017-06-24T08:04:12.590Z,9428
2017-06-24T08:04:38.041Z,8896
2017-06-24T08:05:03.568Z,8120
2017-06-24T08:05:29.349Z,7488
2017-06-24T08:05:54.796Z,6888
2017-06-24T08:06:20.292Z,6316
2017-06-24T08:06:45.754Z,5980
2017-06-24T08:07:11.272Z,5796
2017-06-24T08:07:36.730Z,5708
2017-06-24T08:08:02.189Z,5668
2017-06-24T08:08:27.695Z,5708
2017-06-24T08:08:53.301Z,5804
2017-06-24T08:09:18.774Z,6120
2017-06-24T08:09:44.254Z,6832
2017-06-24T08:10:09.725Z,7728
2017-06-24T08:10:35.190Z,8372
2017-06-24T08:11:00.672Z,8816
2017-06-24T08:11:26.151Z,8932
2017-06-24T08:11:51.795Z,8716
2017-06-24T08:12:17.340Z,8752
2017-06-24T08:12:42.813Z,9008
2017-06-24T08:13:08.455Z,9256
2017-06-24T08:13:33.950Z,9764
2017-06-24T08:13:59.459Z,10348
2017-06-24T08:14:24.939Z,10956
2017-06-24T08:14:50.428Z,11432
2017-06-24T08:15:15.923Z,11596
2017-06-24T08:15:41.413Z,11268
2017-06-24T08:16:06.922Z,10616
2017-06-24T08:16:32.386Z,10172
2017-06-24T08:16:57.881Z,9932
2017-06-24T08:17:23.362Z,9716
2017-06-24T08:17:48.928Z,9472
2017-06-24T08:18:14.488Z,9184
2017-06-24T08:18:39.919Z,9044
2017-06-24T08:19:05.434Z,8912
2017-06-24T08:19:30.938Z,8660
2017-06-24T08:19:56.434Z,8200
2017-06-24T08:20:21.946Z,7828
2017-06-24T08:20:47.426Z,7584
2017-06-24T08:21:12.915Z,7384
2017-06-24T08:21:38.407Z,7304
2017-06-24T08:22:03.882Z,7196
2017-06-24T08:22:29.372Z,6732
2017-06-24T08:22:54.853Z,6320
2017-06-24T08:23:20.344Z,6792
2017-06-24T08:23:45.828Z,7352
2017-06-24T08:24:11.305Z,7660
2017-06-24T08:24:36.793Z,7876
2017-06-24T08:25:02.295Z,8176
2017-06-24T08:25:27.780Z,8396
2017-06-24T08:25:53.271Z,8364
2017-06-24T08:26:18.758Z,8148
2017-06-24T08:26:44.232Z,7808
2017-06-24T08:27:09.710Z,7560
2017-06-24T08:27:35.185Z,7448
2017-06-24T08:28:00.656Z,7532
2017-06-24T08:28:26.142Z,7692
2017-06-24T08:28:51.602Z,7808
2017-06-24T08:29:17.111Z,7860
2017-06-24T08:29:42.605Z,7868
2017-06-24T08:30:08.093Z,7736
2017-06-24T08:30:33.594Z,7464
2017-06-24T08:30:59.067Z,7216
2017-06-24T08:31:24.573Z,7288
2017-06-24T08:31:50.039Z,7456
2017-06-24T08:32:15.518Z,7556
2017-06-24T08:32:40.977Z,7324
2017-06-24T08:33:06.456Z,6948
2017-06-24T08:33:31.918Z,6908
2017-06-24T08:33:57.415Z,7012
2017-06-24T08:34:22.896Z,7248
2017-06-24T08:34:48.381Z,7412
2017-06-24T08:35:13.864Z,7476
2017-06-24T08:35:39.335Z,7708
2017-06-24T08:36:04.811Z,8480
2017-06-24T08:36:30.279Z,9612
2017-06-24T08:36:55.765Z,10624
2017-06-24T08:37:21.259Z,11060
2017-06-24T08:37:46.749Z,11204
2017-06-24T08:38:12.245Z,10928
2017-06-24T08:38:37.741Z,10548
2017-06-24T08:39:03.248Z,10116
2017-06-24T08:39:28.726Z,9960
2017-06-24T08:39:54.195Z,10212
2017-06-24T08:40:19.668Z,11256
2017-06-24T08:40:45.141Z,12316
2017-06-24T08:41:10.605Z,13020
2017-06-24T08:41:36.075Z,13044
2017-06-24T08:42:01.545Z,12544
2017-06-24T08:42:27.009Z,11896
2017-06-24T08:42:52.479Z,11440
2017-06-24T08:43:17.965Z,11624
2017-06-24T08:43:43.452Z,12292
2017-06-24T08:44:08.974Z,13200
2017-06-24T08:44:34.472Z,13936
2017-06-24T08:44:59.940Z,14016
2017-06-24T08:45:25.420Z,13456
2017-06-24T08:45:50.945Z,12484
2017-06-24T08:46:16.390Z,11828
2017-06-24T08:46:41.878Z,11740
2017-06-24T08:47:07.343Z,11908
2017-06-24T08:47:32.840Z,11884
2017-06-24T08:47:58.336Z,12012
2017-06-24T08:48:23.858Z,12264
2017-06-24T08:48:49.330Z,12544
2017-06-24T08:49:14.820Z,12100
2017-06-24T08:49:40.279Z,11368
2017-06-24T08:50:05.760Z,10832
2017-06-24T08:50:31.235Z,10532
2017-06-24T08:50:56.720Z,10432
2017-06-24T08:51:22.216Z,10728
2017-06-24T08:51:47.713Z,11164
2017-06-24T08:52:13.198Z,11720
2017-06-24T08:52:38.686Z,11664
2017-06-24T08:53:04.179Z,11696
2017-06-24T08:53:29.648Z,11892
2017-06-24T08:53:55.125Z,12156
2017-06-24T08:54:20.629Z,12316
2017-06-24T08:54:46.107Z,12848
2017-06-24T08:55:11.608Z,13112
2017-06-24T08:55:37.094Z,12844
2017-06-24T08:56:02.575Z,11932
2017-06-24T08:56:28.033Z,12304
2017-06-24T08:56:53.520Z,12832
2017-06-24T08:57:19.024Z,13376
2017-06-24T08:57:44.495Z,13224
2017-06-24T08:58:09.986Z,12816
2017-06-24T08:58:35.459Z,12900
2017-06-24T08:59:00.925Z,13808
2017-06-24T08:59:26.400Z,13260
2017-06-24T08:59:51.885Z,11616
2017-06-24T09:00:17.395Z,10520
2017-06-24T09:00:42.908Z,10604
2017-06-24T09:01:08.603Z,10536
2017-06-24T09:01:34.245Z,10328
2017-06-24T09:01:59.751Z,10104
2017-06-24T09:02:25.338Z,9192
2017-06-24T09:02:50.854Z,8848
2017-06-24T09:03:16.459Z,9188
2017-06-24T09:03:42.031Z,9780
2017-06-24T09:04:07.561Z,9876
2017-06-24T09:04:33.085Z,9676
2017-06-24T09:04:58.616Z,9576
2017-06-24T09:05:24.110Z,9396
2017-06-24T09:05:49.641Z,8804
2017-06-24T09:06:15.168Z,8432
2017-06-24T09:06:40.687Z,8776
2017-06-24T09:07:06.265Z,8780
2017-06-24T09:07:31.825Z,8016
2017-06-24T09:07:57.351Z,7456
2017-06-24T09:08:22.863Z,7184
2017-06-24T09:08:48.476Z,6844
2017-06-24T09:09:14.058Z,7076
2017-06-24T09:09:39.581Z,6732
2017-06-24T09:10:05.061Z,6820
2017-06-24T09:10:30.524Z,6944
2017-06-24T09:10:55.999Z,6584
2017-06-24T09:11:21.494Z,6812
2017-06-24T09:11:46.985Z,7044
2017-06-24T09:12:12.547Z,6756
2017-06-24T09:12:37.988Z,6372
2017-06-24T09:13:03.476Z,6460
2017-06-24T09:13:28.964Z,5940
2017-06-24T09:13:54.423Z,5584
2017-06-24T09:14:19.900Z,6064
2017-06-24T09:14:45.357Z,6684
2017-06-24T09:15:10.862Z,6596
2017-06-24T09:15:36.527Z,5776
2017-06-24T09:16:02.130Z,5424
2017-06-24T09:16:27.768Z,5648
2017-06-24T09:16:53.383Z,5972
2017-06-24T09:17:18.870Z,6020
2017-06-24T09:17:44.392Z,5720
2017-06-24T09:18:09.897Z,5308
2017-06-24T09:18:35.383Z,5000
2017-06-24T09:19:00.929Z,4708
2017-06-24T09:19:26.439Z,4468
2017-06-24T09:19:51.951Z,4456
2017-06-24T09:20:17.601Z,4844
2017-06-24T09:20:43.580Z,5160
2017-06-24T09:21:09.098Z,5000
2017-06-24T09:21:34.586Z,4632
2017-06-24T09:22:00.229Z,4364
2017-06-24T09:22:25.806Z,4620
2017-06-24T09:22:51.357Z,4904
2017-06-24T09:23:17.021Z,4712
2017-06-24T09:23:42.549Z,4708
2017-06-24T09:24:08.199Z,4532
2017-06-24T09:24:33.774Z,4192
2017-06-24T09:24:59.197Z,4328
2017-06-24T09:25:24.687Z,4616
2017-06-24T09:25:50.166Z,4292
2017-06-24T09:26:15.731Z,4052
2017-06-24T09:26:41.194Z,4580
2017-06-24T09:27:06.837Z,5064
2017-06-24T09:27:32.324Z,4884
2017-06-24T09:27:57.890Z,4376
2017-06-24T09:28:23.447Z,4328
2017-06-24T09:28:48.935Z,4480
2017-06-24T09:29:14.413Z,4368
2017-06-24T09:29:39.885Z,4456
2017-06-24T09:30:05.367Z,4700
2017-06-24T09:30:30.836Z,4596
2017-06-24T09:30:56.318Z,4624
2017-06-24T09:31:21.800Z,4784
2017-06-24T09:31:47.368Z,4848
2017-06-24T09:32:12.951Z,4888
2017-06-24T09:32:38.595Z,4856
2017-06-24T09:33:04.018Z,4980
2017-06-24T09:33:29.526Z,4992
2017-06-24T09:33:55.026Z,4724
2017-06-24T09:34:20.509Z,4524
2017-06-24T09:34:46.001Z,4552
2017-06-24T09:35:11.461Z,5096
2017-06-24T09:35:36.952Z,5724
2017-06-24T09:36:02.465Z,6000
2017-06-24T09:36:27.965Z,6108
2017-06-24T09:36:53.447Z,6244
2017-06-24T09:37:18.930Z,6060
2017-06-24T09:37:44.417Z,6036
2017-06-24T09:38:09.896Z,6324
2017-06-24T09:38:35.383Z,6476
2017-06-24T09:39:00.877Z,6344
2017-06-24T09:39:26.387Z,6048
2017-06-24T09:39:51.858Z,6224
2017-06-24T09:40:17.318Z,6784
2017-06-24T09:40:42.794Z,7088